KPUC/PUC METAR and TAF weather

Enter ICAO airport designator
Station Type Date Time Source
KPUC METAR 2019/02/20 06:53 UTC NOAA

KPUC 200653Z AUTO 01007KT 10SM CLR M16/M19 A2978 RMK AO2 SLP157 T11561194 410331156


Station Type Date Time Source
KPUC Decoded METAR 2019/02/20 06:53 UTC NOAA

PRICE CARBON COUNTY AIRPORT, UT, United States (KPUC) 39-37N 110-45W 2091M
Feb 20, 2019 - 01:53 AM EST / 2019.02.20 0653 UTC
Wind: from the N (010 degrees) at 8 MPH (7 KT):0
Visibility: 10 mile(s):0
Sky conditions: clear
Temperature: 3.9 F (-15.6 C)
Windchill: -9 F (-23 C):2
Dew Point: -2.9 F (-19.4 C)
Relative Humidity: 72%
Pressure (altimeter): 29.78 in. Hg (1008 hPa)
ob: KPUC 200653Z AUTO 01007KT 10SM CLR M16/M19 A2978 RMK AO2 SLP157 T11561194 410331156
cycle: 7

Station Type Date Time Source
KPUC TAF UTC NOAA

Error!


Example: see airport list